createdAt,value
2019-02-09T00:02:08.922Z,62.20
2019-02-09T00:04:40.465Z,61.80
2019-02-09T00:07:11.869Z,62.80
2019-02-09T00:09:43.454Z,58.80
2019-02-09T00:12:15.220Z,62.40
2019-02-09T00:14:46.845Z,60.80
2019-02-09T00:17:18.450Z,60.20
2019-02-09T00:19:50.562Z,59.60
2019-02-09T00:22:21.999Z,61.00
2019-02-09T00:24:53.748Z,60.60
2019-02-09T00:27:25.530Z,47.00
2019-02-09T00:29:56.897Z,55.80
2019-02-09T00:32:28.487Z,63.40
2019-02-09T00:35:00.269Z,59.20
2019-02-09T00:37:31.932Z,57.60
2019-02-09T00:40:03.542Z,65.00
2019-02-09T00:42:35.067Z,57.80
2019-02-09T00:45:07.621Z,60.00
2019-02-09T00:47:39.381Z,60.00
2019-02-09T00:50:11.015Z,58.80
2019-02-09T00:52:42.910Z,59.60
2019-02-09T00:55:14.726Z,56.00
2019-02-09T00:57:46.394Z,57.00
2019-02-09T01:00:23.105Z,61.00
2019-02-09T01:02:55.083Z,64.00
2019-02-09T01:05:35.296Z,63.80
2019-02-09T01:08:07.304Z,66.40
2019-02-09T01:10:39.028Z,64.80
2019-02-09T01:13:10.819Z,58.40
2019-02-09T01:15:42.127Z,65.20
2019-02-09T01:18:13.679Z,58.40
2019-02-09T01:20:45.020Z,67.00
2019-02-09T01:23:16.328Z,67.00
2019-02-09T01:25:48.020Z,56.00
2019-02-09T01:28:19.555Z,66.00
2019-02-09T01:30:51.155Z,70.20
2019-02-09T01:33:22.764Z,63.80
2019-02-09T01:35:54.484Z,69.20
2019-02-09T01:38:26.215Z,74.20
2019-02-09T01:40:59.483Z,79.00
2019-02-09T01:43:30.867Z,78.40
2019-02-09T01:46:02.529Z,76.00
2019-02-09T01:48:34.259Z,75.60
2019-02-09T01:51:06.515Z,75.00
2019-02-09T01:53:38.086Z,68.60
2019-02-09T01:56:10.891Z,66.80
2019-02-09T01:58:42.381Z,65.40
2019-02-09T02:01:13.838Z,71.20
2019-02-09T02:03:45.101Z,74.60
2019-02-09T02:06:16.620Z,73.00
2019-02-09T02:08:48.072Z,78.60
2019-02-09T02:11:19.521Z,78.00
2019-02-09T02:13:51.673Z,83.20
2019-02-09T02:16:23.120Z,79.20
2019-02-09T02:18:55.498Z,84.60
2019-02-09T02:21:27.273Z,78.60
2019-02-09T02:23:58.947Z,87.40
2019-02-09T02:26:30.906Z,84.40
2019-02-09T02:29:02.682Z,85.20
2019-02-09T02:31:34.323Z,85.60
2019-02-09T02:34:06.110Z,85.40
2019-02-09T02:36:37.447Z,80.60
2019-02-09T02:39:12.478Z,77.60
2019-02-09T02:41:43.963Z,84.40
2019-02-09T02:44:15.566Z,80.80
2019-02-09T02:46:47.501Z,83.00
2019-02-09T02:49:19.088Z,78.60
2019-02-09T02:51:50.979Z,90.00
2019-02-09T02:54:22.503Z,101.60
2019-02-09T02:56:54.182Z,107.40
2019-02-09T02:59:26.051Z,117.20
2019-02-09T03:01:57.553Z,114.80
2019-02-09T03:04:29.079Z,111.00
2019-02-09T03:07:00.836Z,96.60
2019-02-09T03:09:32.768Z,91.60
2019-02-09T03:12:04.249Z,100.80
2019-02-09T03:14:35.920Z,81.20
2019-02-09T03:17:07.113Z,87.80
2019-02-09T03:19:38.676Z,83.40
2019-02-09T03:22:10.026Z,81.60
2019-02-09T03:24:41.577Z,78.80
2019-02-09T03:27:12.936Z,79.00
2019-02-09T03:29:44.776Z,72.00
2019-02-09T03:32:16.074Z,77.20
2019-02-09T03:34:48.168Z,78.60
2019-02-09T03:37:19.495Z,72.00
2019-02-09T03:39:51.054Z,75.20
2019-02-09T03:42:22.810Z,72.20
2019-02-09T03:44:54.211Z,74.40
2019-02-09T03:47:26.838Z,72.40
2019-02-09T03:49:58.228Z,73.00
2019-02-09T03:52:29.803Z,71.40
2019-02-09T03:55:02.010Z,74.20
2019-02-09T03:57:33.211Z,69.60
2019-02-09T04:00:06.719Z,66.60
2019-02-09T04:02:38.736Z,67.80
2019-02-09T04:05:11.350Z,72.00
2019-02-09T04:07:42.932Z,106.00
2019-02-09T04:10:15.896Z,118.00
2019-02-09T04:12:47.727Z,150.25
2019-02-09T04:15:21.637Z,145.40
2019-02-09T04:17:53.580Z,164.00
2019-02-09T04:20:25.973Z,141.50
2019-02-09T04:22:58.015Z,124.60
2019-02-09T04:25:29.354Z,129.60
2019-02-09T04:28:00.965Z,84.60
2019-02-09T04:30:33.334Z,145.40
2019-02-09T04:33:04.633Z,127.80
2019-02-09T04:35:36.340Z,102.00
2019-02-09T04:38:07.401Z,85.60
2019-02-09T04:40:39.085Z,89.20
2019-02-09T04:43:10.754Z,81.40
2019-02-09T04:45:42.949Z,76.80
2019-02-09T04:48:14.746Z,71.60
2019-02-09T04:50:46.232Z,65.60
2019-02-09T04:53:18.814Z,68.40
2019-02-09T04:55:51.575Z,67.60
2019-02-09T04:58:23.222Z,68.20
2019-02-09T05:00:55.165Z,73.00
2019-02-09T05:04:44.173Z,68.40
2019-02-09T05:07:35.999Z,74.00
2019-02-09T05:14:21.773Z,69.60
2019-02-09T05:17:44.017Z,70.60
2019-02-09T05:24:16.502Z,62.20
2019-02-09T05:27:39.096Z,58.40
2019-02-09T05:31:22.457Z,63.80
2019-02-09T05:34:55.715Z,64.40
2019-02-09T05:42:10.400Z,66.00
2019-02-09T05:49:04.708Z,63.60
2019-02-09T05:52:49.262Z,63.00
2019-02-09T05:56:33.739Z,62.60
2019-02-09T06:00:05.074Z,60.60
2019-02-09T06:07:10.749Z,64.00
2019-02-09T06:11:40.981Z,56.20
2019-02-09T06:14:33.688Z,56.80
2019-02-09T06:23:04.053Z,51.80
2019-02-09T06:26:20.860Z,51.80
2019-02-09T06:32:58.542Z,56.00
2019-02-09T06:44:04.204Z,47.00
2019-02-09T06:47:09.264Z,49.40
2019-02-09T06:50:20.793Z,52.80
2019-02-09T06:53:48.231Z,56.20
2019-02-09T07:01:40.076Z,48.80
2019-02-09T07:04:49.753Z,45.20
2019-02-09T07:07:40.971Z,46.40
2019-02-09T07:14:55.710Z,47.80
2019-02-09T07:17:51.536Z,47.40
2019-02-09T07:21:16.719Z,52.00
2019-02-09T07:25:13.615Z,49.00
2019-02-09T07:27:53.523Z,43.60
2019-02-09T07:34:49.702Z,40.00
2019-02-09T07:38:18.985Z,42.00
2019-02-09T07:45:10.668Z,52.40
2019-02-09T07:48:31.856Z,44.20
2019-02-09T07:52:07.864Z,49.60
2019-02-09T07:55:47.865Z,46.20
2019-02-09T07:58:33.938Z,50.40
2019-02-09T08:02:11.860Z,46.80
2019-02-09T08:05:55.328Z,46.20
2019-02-09T08:09:12.634Z,47.00
2019-02-09T08:19:47.325Z,44.20
2019-02-09T08:27:07.974Z,44.80
2019-02-09T08:29:43.138Z,44.80
2019-02-09T08:32:15.369Z,38.20
2019-02-09T08:34:46.943Z,55.80
2019-02-09T08:37:18.418Z,54.40
2019-02-09T08:39:50.422Z,66.60
2019-02-09T08:42:22.170Z,49.60
2019-02-09T08:44:53.779Z,66.60
2019-02-09T08:47:25.359Z,42.20
2019-02-09T08:49:57.239Z,44.60
2019-02-09T08:52:28.970Z,50.40
2019-02-09T08:55:00.525Z,52.40
2019-02-09T08:57:32.635Z,43.80
2019-02-09T09:00:05.975Z,35.80
2019-02-09T09:02:38.537Z,44.20
2019-02-09T09:05:11.506Z,45.40
2019-02-09T09:07:43.116Z,32.20
2019-02-09T09:10:16.521Z,33.20
2019-02-09T09:12:47.769Z,25.80
2019-02-09T09:15:22.771Z,34.20
2019-02-09T09:17:54.661Z,35.60
2019-02-09T09:20:28.795Z,32.00
2019-02-09T09:23:00.968Z,41.00
2019-02-09T09:25:33.079Z,35.40
2019-02-09T09:28:05.378Z,30.80
2019-02-09T09:30:37.109Z,32.40
2019-02-09T09:33:09.208Z,34.40
2019-02-09T09:35:41.832Z,33.40
2019-02-09T09:38:13.886Z,32.20
2019-02-09T09:40:45.632Z,32.20
2019-02-09T09:43:17.395Z,28.40
2019-02-09T09:45:49.806Z,38.20
2019-02-09T09:48:21.784Z,32.80
2019-02-09T09:50:53.491Z,37.80
2019-02-09T09:53:25.307Z,33.00
2019-02-09T09:55:58.179Z,37.20
2019-02-09T09:58:30.001Z,32.80
2019-02-09T10:01:01.791Z,39.40
2019-02-09T10:03:33.563Z,31.40
2019-02-09T10:06:05.712Z,29.00
2019-02-09T10:08:37.924Z,35.40
2019-02-09T10:11:09.680Z,36.40
2019-02-09T10:13:41.531Z,35.60
2019-02-09T10:16:13.350Z,36.40
2019-02-09T10:18:45.201Z,38.00
2019-02-09T10:21:16.863Z,34.00
2019-02-09T10:23:48.702Z,33.80
2019-02-09T10:26:20.686Z,33.80
2019-02-09T10:28:52.682Z,38.80
2019-02-09T10:31:25.835Z,42.20
2019-02-09T10:33:57.923Z,34.40
2019-02-09T10:36:31.051Z,32.60
2019-02-09T10:39:02.927Z,34.40
2019-02-09T10:41:36.592Z,36.60
2019-02-09T10:44:08.547Z,34.40
2019-02-09T10:46:40.067Z,38.80
2019-02-09T10:49:12.098Z,40.80
2019-02-09T10:51:43.897Z,34.80
2019-02-09T10:54:15.842Z,35.40
2019-02-09T10:56:47.324Z,41.60
2019-02-09T10:59:19.389Z,43.00
2019-02-09T11:01:51.183Z,37.00
2019-02-09T11:04:22.718Z,38.60
2019-02-09T11:06:53.925Z,41.20
2019-02-09T11:09:27.252Z,36.20
2019-02-09T11:11:59.114Z,40.20
2019-02-09T11:14:30.831Z,43.00
2019-02-09T11:17:02.368Z,42.60
2019-02-09T11:19:33.847Z,40.60
2019-02-09T11:22:05.497Z,39.40
2019-02-09T11:24:37.048Z,43.40
2019-02-09T11:27:08.810Z,41.40
2019-02-09T11:29:40.526Z,43.40
2019-02-09T11:32:12.148Z,37.20
2019-02-09T11:34:44.870Z,41.00
2019-02-09T11:37:16.592Z,45.40
2019-02-09T11:39:48.699Z,44.60
2019-02-09T11:42:20.620Z,42.60
2019-02-09T11:45:10.814Z,37.80
2019-02-09T11:47:42.338Z,43.80
2019-02-09T11:50:14.603Z,41.00
2019-02-09T11:52:47.121Z,40.20
2019-02-09T11:55:18.910Z,38.40
2019-02-09T11:57:50.781Z,39.00
2019-02-09T12:00:24.373Z,39.00
2019-02-09T12:03:02.715Z,43.40
2019-02-09T12:05:30.524Z,37.80
2019-02-09T12:08:02.743Z,41.20
2019-02-09T12:10:34.806Z,43.20
2019-02-09T12:13:07.229Z,43.20
2019-02-09T12:15:39.328Z,47.40
2019-02-09T12:18:11.419Z,49.80
2019-02-09T12:20:43.050Z,54.20
2019-02-09T12:23:16.032Z,56.20
2019-02-09T12:25:47.465Z,56.40
2019-02-09T12:28:19.057Z,55.20
2019-02-09T12:30:50.890Z,58.60
2019-02-09T12:33:23.504Z,54.60
2019-02-09T12:35:55.112Z,54.20
2019-02-09T12:38:26.635Z,51.00
2019-02-09T12:40:57.624Z,54.40
2019-02-09T12:43:29.280Z,56.00
2019-02-09T12:46:00.911Z,57.40
2019-02-09T12:48:32.451Z,52.00
2019-02-09T12:51:04.216Z,55.00
2019-02-09T12:53:35.922Z,55.40
2019-02-09T12:56:06.979Z,54.80
2019-02-09T12:58:39.577Z,53.40
2019-02-09T13:01:10.607Z,52.60
2019-02-09T13:03:42.552Z,56.20
2019-02-09T13:06:13.871Z,53.00
2019-02-09T13:08:47.090Z,52.60
2019-02-09T13:11:18.426Z,51.20
2019-02-09T13:13:50.267Z,48.80
2019-02-09T13:16:21.734Z,50.60
2019-02-09T13:18:53.420Z,52.60
2019-02-09T13:21:25.154Z,61.20
2019-02-09T13:23:56.505Z,60.60
2019-02-09T13:26:28.493Z,64.40
2019-02-09T13:29:00.021Z,63.20
2019-02-09T13:31:31.707Z,63.60
2019-02-09T13:34:03.185Z,67.40
2019-02-09T13:36:34.733Z,72.00
2019-02-09T13:39:08.686Z,74.00
2019-02-09T13:41:40.012Z,68.40
2019-02-09T13:44:11.545Z,73.40
2019-02-09T13:46:42.976Z,74.40
2019-02-09T13:49:14.912Z,80.00
2019-02-09T13:51:46.746Z,78.20
2019-02-09T13:54:18.821Z,77.20
2019-02-09T13:56:50.649Z,75.00
2019-02-09T13:59:23.199Z,82.80
2019-02-09T14:01:54.750Z,77.40
2019-02-09T14:04:26.286Z,88.00
2019-02-09T14:06:57.662Z,86.60
2019-02-09T14:09:29.839Z,87.60
2019-02-09T14:12:01.335Z,91.40
2019-02-09T14:14:33.134Z,83.40
2019-02-09T14:17:08.544Z,83.80
2019-02-09T14:19:41.640Z,89.40
2019-02-09T14:22:12.982Z,74.00
2019-02-09T14:24:44.446Z,78.80
2019-02-09T14:27:17.610Z,76.80
2019-02-09T14:29:51.115Z,79.60
2019-02-09T14:32:24.479Z,82.80
2019-02-09T14:34:56.069Z,79.80
2019-02-09T14:37:27.533Z,85.60
2019-02-09T14:39:59.302Z,75.40
2019-02-09T14:42:30.642Z,80.80
2019-02-09T14:45:02.018Z,77.80
2019-02-09T14:47:33.481Z,77.20
2019-02-09T14:50:11.109Z,71.80
2019-02-09T14:52:39.166Z,74.20
2019-02-09T14:55:12.404Z,72.40
2019-02-09T14:57:43.905Z,71.60
2019-02-09T15:00:19.228Z,75.20
2019-02-09T15:02:53.891Z,74.20
2019-02-09T15:05:24.519Z,83.00
2019-02-09T15:07:56.294Z,81.60
2019-02-09T15:10:28.154Z,75.20
2019-02-09T15:12:59.620Z,99.60
2019-02-09T15:15:33.499Z,87.20
2019-02-09T15:18:06.158Z,107.80
2019-02-09T15:20:40.130Z,87.80
2019-02-09T15:23:11.499Z,86.80
2019-02-09T15:25:42.981Z,94.00
2019-02-09T15:28:14.371Z,86.80
2019-02-09T15:30:46.138Z,87.60
2019-02-09T15:33:17.619Z,93.80
2019-02-09T15:35:49.403Z,90.40
2019-02-09T15:38:21.194Z,93.80
2019-02-09T15:40:53.028Z,95.20
2019-02-09T15:43:24.557Z,97.60
2019-02-09T15:45:56.692Z,106.00
2019-02-09T15:48:28.247Z,100.40
2019-02-09T15:51:00.572Z,111.00
2019-02-09T15:53:32.012Z,114.00
2019-02-09T15:56:03.722Z,121.40
2019-02-09T15:58:35.046Z,130.40
2019-02-09T16:01:07.261Z,123.00
2019-02-09T16:03:38.823Z,119.40
2019-02-09T16:06:10.791Z,127.00
2019-02-09T16:08:42.412Z,125.60
2019-02-09T16:11:13.845Z,133.60
2019-02-09T16:13:45.990Z,161.20
2019-02-09T16:16:17.695Z,141.80
2019-02-09T16:18:48.936Z,139.40
2019-02-09T16:21:20.425Z,132.60
2019-02-09T16:23:51.446Z,137.40
2019-02-09T16:26:22.946Z,135.00
2019-02-09T16:28:54.729Z,143.00
2019-02-09T16:31:26.484Z,126.80
2019-02-09T16:33:58.260Z,147.80
2019-02-09T16:36:40.523Z,137.60
2019-02-09T16:39:14.629Z,131.00
2019-02-09T16:41:47.381Z,144.00
2019-02-09T16:44:18.766Z,142.00
2019-02-09T16:46:52.064Z,145.60
2019-02-09T16:49:27.395Z,138.60
2019-02-09T16:52:01.782Z,139.20
2019-02-09T16:54:36.012Z,146.80
2019-02-09T16:57:08.523Z,147.80
2019-02-09T16:59:40.140Z,132.60
2019-02-09T17:02:12.634Z,153.80
2019-02-09T17:04:44.540Z,146.00
2019-02-09T17:07:16.336Z,141.40
2019-02-09T17:09:48.148Z,137.40
2019-02-09T17:12:19.940Z,139.60
2019-02-09T17:14:52.222Z,136.00
2019-02-09T17:17:23.721Z,139.00
2019-02-09T17:19:55.252Z,135.80
2019-02-09T17:22:26.558Z,149.60
2019-02-09T17:24:58.619Z,132.80
2019-02-09T17:27:30.104Z,144.80
2019-02-09T17:30:01.894Z,140.00
2019-02-09T17:32:35.350Z,146.20
2019-02-09T17:35:07.572Z,151.20
2019-02-09T17:37:39.076Z,142.00
2019-02-09T17:40:13.403Z,148.80
2019-02-09T17:42:48.444Z,149.00
2019-02-09T17:45:21.601Z,146.40
2019-02-09T17:47:52.969Z,134.80
2019-02-09T17:50:24.797Z,146.80
2019-02-09T17:52:56.069Z,142.20
2019-02-09T17:55:27.934Z,144.40
2019-02-09T17:57:59.285Z,131.50
2019-02-09T18:00:45.570Z,134.80
2019-02-09T18:03:17.251Z,154.80
2019-02-09T18:05:48.909Z,145.50
2019-02-09T18:08:20.326Z,146.25
2019-02-09T18:10:51.776Z,150.75
2019-02-09T18:13:23.687Z,154.75
2019-02-09T18:15:55.545Z,168.25
2019-02-09T18:18:27.002Z,162.25
2019-02-09T18:20:58.286Z,165.50
2019-02-09T18:23:29.648Z,152.50
2019-02-09T18:26:01.025Z,166.50
2019-02-09T18:28:32.605Z,161.00
2019-02-09T18:31:03.999Z,170.50
2019-02-09T18:33:35.558Z,144.75
2019-02-09T18:36:07.332Z,151.75
2019-02-09T18:38:39.027Z,168.25
2019-02-09T18:41:10.440Z,161.75
2019-02-09T18:43:42.483Z,168.50
2019-02-09T18:46:14.120Z,179.25
2019-02-09T18:48:45.610Z,160.50
2019-02-09T18:51:17.188Z,157.75
2019-02-09T18:53:48.970Z,164.25
2019-02-09T18:56:20.680Z,163.50
2019-02-09T18:58:52.345Z,162.75
2019-02-09T19:01:24.379Z,161.75
2019-02-09T19:03:57.602Z,162.75
2019-02-09T19:06:29.628Z,164.00
2019-02-09T19:09:01.263Z,157.25
2019-02-09T19:11:34.489Z,148.25
2019-02-09T19:14:06.259Z,157.50
2019-02-09T19:16:37.673Z,150.00
2019-02-09T19:19:09.614Z,167.25
2019-02-09T19:21:41.125Z,155.75
2019-02-09T19:24:12.985Z,154.00
2019-02-09T19:26:46.800Z,158.40
2019-02-09T19:29:18.754Z,155.40
2019-02-09T19:31:50.049Z,145.20
2019-02-09T19:34:21.388Z,156.20
2019-02-09T19:36:53.019Z,138.00
2019-02-09T19:39:24.299Z,143.20
2019-02-09T19:41:55.642Z,132.40
2019-02-09T19:44:27.057Z,141.00
2019-02-09T19:46:58.706Z,130.40
2019-02-09T19:49:30.207Z,138.80
2019-02-09T19:52:01.904Z,139.00
2019-02-09T19:54:33.634Z,135.00
2019-02-09T19:57:04.982Z,152.40
2019-02-09T19:59:36.463Z,133.00
2019-02-09T20:02:07.978Z,155.20
2019-02-09T20:04:39.666Z,152.60
2019-02-09T20:07:11.606Z,146.80
2019-02-09T20:09:43.020Z,146.00
2019-02-09T20:12:14.732Z,151.20
2019-02-09T20:14:46.258Z,136.00
2019-02-09T20:17:19.579Z,130.40
2019-02-09T20:19:52.018Z,146.40
2019-02-09T20:22:24.415Z,154.40
2019-02-09T20:24:56.344Z,132.80
2019-02-09T20:27:30.895Z,134.20
2019-02-09T20:30:03.076Z,141.00
2019-02-09T20:32:34.741Z,137.40
2019-02-09T20:35:07.816Z,137.20
2019-02-09T20:37:39.301Z,141.40
2019-02-09T20:40:16.723Z,140.20
2019-02-09T20:42:47.901Z,145.00
2019-02-09T20:45:19.560Z,150.00
2019-02-09T20:47:51.419Z,140.20
2019-02-09T20:50:24.097Z,136.00
2019-02-09T20:52:55.747Z,141.20
2019-02-09T20:55:27.509Z,135.60
2019-02-09T20:57:59.159Z,144.80
2019-02-09T21:00:30.900Z,138.40
2019-02-09T21:03:02.388Z,144.80
2019-02-09T21:05:36.437Z,142.80
2019-02-09T21:08:08.838Z,138.80
2019-02-09T21:10:40.590Z,148.40
2019-02-09T21:13:11.800Z,145.60
2019-02-09T21:15:43.506Z,145.40
2019-02-09T21:18:14.348Z,128.40
2019-02-09T21:20:46.003Z,140.60
2019-02-09T21:23:17.543Z,134.40
2019-02-09T21:25:49.090Z,137.40
2019-02-09T21:28:20.557Z,139.40
2019-02-09T21:30:52.077Z,146.60
2019-02-09T21:33:23.543Z,150.80
2019-02-09T21:35:54.967Z,148.00
2019-02-09T21:38:44.758Z,127.00
2019-02-09T21:41:16.346Z,131.00
2019-02-09T21:43:47.794Z,138.20
2019-02-09T21:46:19.854Z,134.00
2019-02-09T21:49:09.522Z,128.20
2019-02-09T21:51:41.428Z,132.60
2019-02-09T21:54:13.558Z,115.60
2019-02-09T21:56:45.098Z,131.20
2019-02-09T21:59:34.789Z,136.80
2019-02-09T22:02:06.485Z,121.80
2019-02-09T22:04:38.352Z,133.80
2019-02-09T22:07:10.079Z,142.20
2019-02-09T22:10:00.276Z,145.80
2019-02-09T22:12:31.866Z,150.20
2019-02-09T22:15:03.510Z,145.20
2019-02-09T22:17:35.022Z,139.60
2019-02-09T22:20:09.030Z,129.20
2019-02-09T22:22:40.589Z,155.80
2019-02-09T22:25:15.496Z,186.25
2019-02-09T22:27:47.813Z,166.00
2019-02-09T22:30:21.595Z,157.50
2019-02-09T22:32:53.344Z,159.50
2019-02-09T22:35:25.029Z,138.20
2019-02-09T22:37:56.975Z,141.20
2019-02-09T22:40:30.485Z,135.20
2019-02-09T22:43:02.101Z,122.60
2019-02-09T22:45:33.403Z,125.60
2019-02-09T22:48:05.059Z,125.40
2019-02-09T22:50:38.776Z,120.80
2019-02-09T22:53:10.570Z,107.40
2019-02-09T22:55:42.074Z,114.40
2019-02-09T22:58:13.694Z,116.00
2019-02-09T23:01:25.866Z,107.60
2019-02-09T23:04:36.371Z,122.00
2019-02-09T23:07:36.462Z,124.20
2019-02-09T23:10:13.540Z,118.40
2019-02-09T23:12:48.622Z,129.40
2019-02-09T23:15:18.403Z,121.40
2019-02-09T23:17:50.318Z,130.00
2019-02-09T23:20:21.631Z,126.80
2019-02-09T23:22:52.983Z,99.00
2019-02-09T23:25:24.468Z,131.80
2019-02-09T23:27:55.914Z,131.20
2019-02-09T23:30:27.683Z,130.80
2019-02-09T23:33:00.300Z,121.00
2019-02-09T23:35:32.117Z,120.80
2019-02-09T23:38:03.731Z,122.00
2019-02-09T23:40:36.554Z,113.60
2019-02-09T23:43:08.641Z,120.00
2019-02-09T23:45:39.821Z,120.80
2019-02-09T23:48:11.865Z,116.60
2019-02-09T23:50:43.326Z,126.00
2019-02-09T23:53:14.996Z,124.40
2019-02-09T23:55:46.617Z,122.20
2019-02-09T23:58:18.475Z,130.20
